createdAt,value
2019-05-16T18:45:16.773Z,985.07
2019-05-16T18:46:16.730Z,985.09
2019-05-16T18:47:16.755Z,985.07
2019-05-16T18:48:16.741Z,985.1
2019-05-16T18:49:16.737Z,985.11
2019-05-16T18:50:17.986Z,985.05
2019-05-16T18:51:16.719Z,985.09
2019-05-16T18:52:17.305Z,985.06
2019-05-16T18:53:17.785Z,985.04
2019-05-16T18:54:17.384Z,985.05
2019-05-16T18:55:19.113Z,985.02
2019-05-16T18:56:16.950Z,984.98
2019-05-16T18:57:17.548Z,985.02
2019-05-16T18:58:17.930Z,984.98
2019-05-16T18:59:16.896Z,984.99
2019-05-16T19:00:17.743Z,985
2019-05-16T19:01:17.528Z,984.99
2019-05-16T19:02:17.881Z,984.96
2019-05-16T19:03:16.682Z,984.95
2019-05-16T19:04:17.487Z,984.98
2019-05-16T19:05:17.264Z,984.97
2019-05-16T19:06:17.050Z,984.97
2019-05-16T19:07:16.856Z,984.97
2019-05-16T19:08:16.670Z,984.96
2019-05-16T19:09:16.775Z,984.96
2019-05-16T19:10:17.596Z,984.93
2019-05-16T19:11:17.508Z,984.97
2019-05-16T19:12:17.004Z,984.94
2019-05-16T19:13:16.883Z,984.98
2019-05-16T19:14:16.981Z,984.96
2019-05-16T19:15:17.709Z,984.94
2019-05-16T19:16:17.022Z,984.95
2019-05-16T19:17:21.804Z,984.95
2019-05-16T19:18:17.021Z,984.96
2019-05-16T19:19:16.748Z,984.93
2019-05-16T19:20:17.230Z,984.99
2019-05-16T19:21:16.977Z,984.96
2019-05-16T19:22:17.095Z,984.95
2019-05-16T19:23:17.467Z,984.91
2019-05-16T19:24:16.633Z,984.96
2019-05-16T19:25:18.439Z,984.97
2019-05-16T19:26:16.789Z,984.93
2019-05-16T19:27:17.205Z,984.95
2019-05-16T19:28:16.627Z,984.95
2019-05-16T19:29:17.305Z,984.98
2019-05-16T19:30:16.622Z,984.96
2019-05-16T19:31:17.111Z,984.97
2019-05-16T19:32:17.176Z,984.96
2019-05-16T19:33:17.394Z,984.97
2019-05-16T19:34:16.613Z,985
2019-05-16T19:35:16.618Z,985
2019-05-16T19:36:16.634Z,984.98
2019-05-16T19:37:16.604Z,984.98
2019-05-16T19:38:16.996Z,984.96
2019-05-16T19:39:16.603Z,984.95
2019-05-16T19:40:17.139Z,984.98
2019-05-16T19:41:16.594Z,984.96
2019-05-16T19:42:17.050Z,984.94
2019-05-16T19:43:17.452Z,984.95
2019-05-16T19:44:16.863Z,984.92
2019-05-16T19:45:17.026Z,984.91
2019-05-16T19:46:16.584Z,984.92
2019-05-16T19:47:16.583Z,984.89
2019-05-16T19:48:17.407Z,984.94
2019-05-16T19:49:16.576Z,984.91
2019-05-16T19:50:16.577Z,984.9
2019-05-16T19:51:16.571Z,984.92
2019-05-16T19:52:16.581Z,984.9
2019-05-16T19:53:16.675Z,984.87
2019-05-16T19:54:16.576Z,984.91
2019-05-16T19:55:16.569Z,984.95
2019-05-16T19:56:17.717Z,984.92
2019-05-16T19:57:17.409Z,984.95
2019-05-16T19:58:16.556Z,984.94
2019-05-16T19:59:16.905Z,984.93
2019-05-16T20:00:17.131Z,984.92
2019-05-16T20:01:16.848Z,984.94
2019-05-16T20:02:16.691Z,984.92
2019-05-16T20:03:16.759Z,984.96
2019-05-16T20:04:18.381Z,984.99
2019-05-16T20:05:16.999Z,985.01
2019-05-16T20:06:16.878Z,985
2019-05-16T20:07:16.833Z,984.97
2019-05-16T20:08:17.471Z,985.01
2019-05-16T20:09:16.703Z,985.01
2019-05-16T20:10:16.952Z,984.99
2019-05-16T20:11:16.904Z,984.98
2019-05-16T20:12:16.932Z,984.99
2019-05-16T20:13:16.706Z,985.02
2019-05-16T20:14:19.530Z,984.98
2019-05-16T20:15:16.683Z,984.96
2019-05-16T20:16:18.408Z,984.94
2019-05-16T20:17:19.143Z,984.95
2019-05-16T20:18:18.431Z,984.92
2019-05-16T20:19:16.511Z,984.93
2019-05-16T20:20:18.577Z,984.96
2019-05-16T20:21:18.476Z,984.93
2019-05-16T20:22:16.682Z,984.92
2019-05-16T20:23:18.589Z,984.94
2019-05-16T20:24:16.743Z,984.94
2019-05-16T20:25:16.564Z,984.93
2019-05-16T20:26:16.895Z,984.95
2019-05-16T20:27:16.981Z,984.91
2019-05-16T20:28:18.387Z,984.95
2019-05-16T20:29:17.022Z,984.98
2019-05-16T20:30:17.015Z,984.95
2019-05-16T20:31:17.035Z,984.95
2019-05-16T20:32:16.908Z,984.96
2019-05-16T20:33:17.860Z,984.96
2019-05-16T20:34:17.497Z,984.93
2019-05-16T20:35:17.437Z,984.91
2019-05-16T20:36:17.297Z,984.96
2019-05-16T20:37:17.324Z,984.96
2019-05-16T20:38:17.266Z,984.98
2019-05-16T20:39:17.184Z,984.94
2019-05-16T20:40:17.231Z,984.99
2019-05-16T20:41:17.022Z,984.97
2019-05-16T20:42:17.046Z,984.95
2019-05-16T20:43:16.929Z,984.93
2019-05-16T20:44:17.355Z,984.96
2019-05-16T20:45:16.884Z,984.96
2019-05-16T20:46:16.946Z,984.98
2019-05-16T20:47:16.624Z,984.91
2019-05-16T20:48:18.374Z,984.96
2019-05-16T20:49:16.806Z,984.96
2019-05-16T20:50:16.919Z,984.96
2019-05-16T20:51:17.495Z,984.94
2019-05-16T20:52:17.406Z,984.95
2019-05-16T20:53:17.530Z,984.92
2019-05-16T20:54:17.460Z,984.96
2019-05-16T20:55:17.516Z,984.93
2019-05-16T20:56:17.111Z,984.91
2019-05-16T20:57:17.215Z,984.93
2019-05-16T20:58:16.456Z,984.92
2019-05-16T20:59:17.176Z,984.97
2019-05-16T21:00:17.495Z,984.91
2019-05-16T21:01:17.305Z,984.9
2019-05-16T21:02:16.445Z,984.98
2019-05-16T21:03:16.444Z,984.94
2019-05-16T21:04:17.193Z,984.91
2019-05-16T21:05:17.835Z,984.93
2019-05-16T21:06:17.035Z,984.9
2019-05-16T21:07:17.184Z,984.9
2019-05-16T21:08:17.169Z,984.86
2019-05-16T21:09:16.898Z,984.94
2019-05-16T21:10:16.745Z,984.9
2019-05-16T21:11:17.129Z,984.92
2019-05-16T21:12:17.232Z,984.91
2019-05-16T21:13:17.261Z,984.89
2019-05-16T21:14:16.478Z,984.88
2019-05-16T21:15:17.106Z,984.86
2019-05-16T21:16:18.150Z,984.87
2019-05-16T21:17:17.374Z,984.87
2019-05-16T21:18:16.676Z,984.86
2019-05-16T21:19:16.412Z,984.85
2019-05-16T21:20:17.590Z,984.83
2019-05-16T21:21:19.212Z,984.8
2019-05-16T21:22:19.131Z,984.79
2019-05-16T21:23:19.363Z,984.76
2019-05-16T21:24:16.330Z,984.76
2019-05-16T21:25:16.851Z,984.75
2019-05-16T21:26:16.311Z,984.78
2019-05-16T21:27:16.877Z,984.82
2019-05-16T21:28:17.065Z,984.8
2019-05-16T21:29:16.412Z,984.8
2019-05-16T21:30:19.002Z,984.77
2019-05-16T21:31:19.193Z,984.75
2019-05-16T21:32:16.319Z,984.73
2019-05-16T21:33:18.409Z,984.76
2019-05-16T21:34:19.060Z,984.7
2019-05-16T21:35:16.277Z,984.73
2019-05-16T21:36:18.993Z,984.72
2019-05-16T21:37:17.272Z,984.69
2019-05-16T21:38:16.622Z,984.69
2019-05-16T21:39:17.588Z,984.65
2019-05-16T21:40:16.982Z,984.63
2019-05-16T21:41:16.786Z,984.62
2019-05-16T21:42:16.641Z,984.57
2019-05-16T21:43:16.786Z,984.61
2019-05-16T21:44:17.051Z,984.57
2019-05-16T21:45:16.242Z,984.57
2019-05-16T21:46:17.075Z,984.59
2019-05-16T21:47:16.803Z,984.63
2019-05-16T21:48:19.114Z,984.59
2019-05-16T21:49:16.434Z,984.55
2019-05-16T21:50:16.785Z,984.57
2019-05-16T21:51:17.018Z,984.57
2019-05-16T21:52:16.210Z,984.56
2019-05-16T21:53:17.698Z,984.57
2019-05-16T21:54:16.203Z,984.58
2019-05-16T21:55:17.549Z,984.54
2019-05-16T21:56:17.614Z,984.52
2019-05-16T21:57:19.471Z,984.51
2019-05-16T21:58:16.190Z,984.53
2019-05-16T21:59:16.179Z,984.54
2019-05-16T22:00:16.175Z,984.53
2019-05-16T22:01:16.173Z,984.5
2019-05-16T22:02:16.844Z,984.49
2019-05-16T22:03:16.163Z,984.49
2019-05-16T22:04:16.164Z,984.47
2019-05-16T22:05:17.115Z,984.46
2019-05-16T22:06:16.646Z,984.43
2019-05-16T22:07:16.631Z,984.47
2019-05-16T22:08:16.731Z,984.46
2019-05-16T22:09:16.137Z,984.42
2019-05-16T22:10:16.133Z,984.45
2019-05-16T22:11:17.189Z,984.47
2019-05-16T22:12:17.294Z,984.42
2019-05-16T22:13:16.117Z,984.43
2019-05-16T22:14:17.049Z,984.44
2019-05-16T22:15:17.022Z,984.48
2019-05-16T22:16:17.521Z,984.45
2019-05-16T22:17:17.109Z,984.42
2019-05-16T22:18:16.651Z,984.42
2019-05-16T22:19:16.522Z,984.4
2019-05-16T22:20:16.505Z,984.36
2019-05-16T22:21:16.688Z,984.36
2019-05-16T22:22:16.507Z,984.35
2019-05-16T22:23:17.286Z,984.35
2019-05-16T22:24:17.168Z,984.37
2019-05-16T22:25:16.705Z,984.32
2019-05-16T22:26:16.775Z,984.35
2019-05-16T22:27:17.318Z,984.33
2019-05-16T22:28:17.172Z,984.28
2019-05-16T22:29:17.009Z,984.28
2019-05-16T22:30:16.431Z,984.28
2019-05-16T22:31:16.481Z,984.26
2019-05-16T22:32:16.495Z,984.25
2019-05-16T22:33:17.843Z,984.26
2019-05-16T22:34:16.893Z,984.21
2019-05-16T22:35:16.768Z,984.22
2019-05-16T22:36:17.282Z,984.24
2019-05-16T22:37:17.123Z,984.2
2019-05-16T22:38:16.782Z,984.2
2019-05-16T22:39:17.278Z,984.18
2019-05-16T22:40:17.148Z,984.21
2019-05-16T22:41:17.213Z,984.18
2019-05-16T22:42:17.596Z,984.21
2019-05-16T22:43:17.342Z,984.17
2019-05-16T22:44:17.558Z,984.18
2019-05-16T22:45:17.522Z,984.19
2019-05-16T22:46:17.683Z,984.15
2019-05-16T22:47:17.120Z,984.12
2019-05-16T22:48:17.234Z,984.11
2019-05-16T22:49:16.902Z,984.11
2019-05-16T22:50:17.544Z,984.09
2019-05-16T22:51:16.465Z,984.06
2019-05-16T22:52:17.148Z,984.08
2019-05-16T22:53:17.169Z,984.06
2019-05-16T22:54:17.166Z,984.05
2019-05-16T22:55:16.963Z,984.03
2019-05-16T22:56:17.353Z,984.03
2019-05-16T22:57:17.555Z,984.02
2019-05-16T22:58:16.367Z,984.03
2019-05-16T22:59:16.584Z,984.04
2019-05-16T23:00:16.890Z,983.99
2019-05-16T23:01:17.548Z,984
2019-05-16T23:02:16.806Z,984
2019-05-16T23:03:17.353Z,983.99
2019-05-16T23:04:16.734Z,983.97
2019-05-16T23:05:16.787Z,983.95
2019-05-16T23:06:16.249Z,983.94
2019-05-16T23:07:16.451Z,983.93
2019-05-16T23:08:16.413Z,983.93
2019-05-16T23:09:16.395Z,983.87
2019-05-16T23:10:16.596Z,983.87
2019-05-16T23:11:16.311Z,983.88
2019-05-16T23:12:17.339Z,983.85
2019-05-16T23:13:16.943Z,983.85
2019-05-16T23:14:17.014Z,983.82
2019-05-16T23:15:17.063Z,983.86
2019-05-16T23:16:17.118Z,983.83
2019-05-16T23:17:17.213Z,983.82
2019-05-16T23:18:18.704Z,983.81
2019-05-16T23:19:17.074Z,983.8
2019-05-16T23:20:17.012Z,983.79
2019-05-16T23:21:16.944Z,983.79
2019-05-16T23:22:16.670Z,983.8
2019-05-16T23:23:17.358Z,983.77
2019-05-16T23:24:17.215Z,983.77
2019-05-16T23:25:17.081Z,983.71
2019-05-16T23:26:16.710Z,983.72
2019-05-16T23:27:15.761Z,983.72
2019-05-16T23:28:16.695Z,983.73
2019-05-16T23:29:16.873Z,983.72
2019-05-16T23:30:16.445Z,983.67
2019-05-16T23:31:16.600Z,983.71
2019-05-16T23:32:15.737Z,983.66
2019-05-16T23:33:15.725Z,983.67
2019-05-16T23:34:15.729Z,983.66
2019-05-16T23:35:15.712Z,983.72
2019-05-16T23:36:17.395Z,983.67
2019-05-16T23:37:15.701Z,983.68
2019-05-16T23:38:19.620Z,983.67
2019-05-16T23:39:15.687Z,983.69
2019-05-16T23:40:15.689Z,983.61
2019-05-16T23:41:17.210Z,983.59
2019-05-16T23:42:15.690Z,983.64
2019-05-16T23:43:15.672Z,983.61
2019-05-16T23:44:16.606Z,983.61
2019-05-16T23:45:17.036Z,983.64
2019-05-16T23:46:16.491Z,983.67
2019-05-16T23:47:16.468Z,983.6
2019-05-16T23:48:16.391Z,983.61
2019-05-16T23:49:16.753Z,983.58
2019-05-16T23:50:17.001Z,983.59
2019-05-16T23:51:16.890Z,983.58
2019-05-16T23:52:16.748Z,983.58
2019-05-16T23:53:16.415Z,983.58
2019-05-16T23:54:17.206Z,983.55
2019-05-16T23:55:17.301Z,983.57
2019-05-16T23:56:16.655Z,983.57
2019-05-16T23:57:15.598Z,983.56
2019-05-16T23:58:15.580Z,983.6
2019-05-16T23:59:17.119Z,983.58
